Time;durP1;ratioP1;P1;durP2;ratioP2;P2;SDS_P1;SDS_P2;PMS_P1;PMS_P2;Temp;Humidity;BMP_temperature;BMP_pressure;BME280_temperature;BME280_humidity;BME280_pressure;Samples;Min_cycle;Max_cycle;Signal;HPM_P1;HPM_P2
2022/10/31 00:00:54;;;;;;;1.73;0.97;;;;;;;;;;4977792;28;20030;-69
2022/10/31 00:03:19;;;;;;;2.13;1.00;;;;;;;;;;4994181;28;20065;-69
2022/10/31 00:05:47;;;;;;;2.60;1.00;;;;;;;;;;4994926;28;20411;-70
2022/10/31 00:08:13;;;;;;;1.70;1.07;;;;;;;;;;4997868;28;20134;-69
2022/10/31 00:10:38;;;;;;;2.93;0.93;;;;;;;;;;4997693;28;20101;-69
2022/10/31 00:13:04;;;;;;;4.43;0.90;;;;;;;;;;4965337;28;20133;-69
2022/10/31 00:15:30;;;;;;;3.63;0.90;;;;;;;;;;4997722;28;20100;-69
2022/10/31 00:17:55;;;;;;;0.73;0.73;;;;;;;;;;4965409;28;20029;-69
2022/10/31 00:20:21;;;;;;;1.20;0.70;;;;;;;;;;4981122;28;20034;-68
2022/10/31 00:22:46;;;;;;;0.80;0.80;;;;;;;;;;4981638;28;20129;-70
2022/10/31 00:25:14;;;;;;;2.53;0.80;;;;;;;;;;4981802;28;20030;-69
2022/10/31 00:27:40;;;;;;;0.83;0.80;;;;;;;;;;4981239;28;20049;-69
2022/10/31 00:30:06;;;;;;;2.27;0.90;;;;;;;;;;4997382;28;20038;-69
2022/10/31 00:32:31;;;;;;;1.10;0.80;;;;;;;;;;5013820;28;20488;-68
2022/10/31 00:34:58;;;;;;;2.13;0.90;;;;;;;;;;4981445;28;20484;-70
2022/10/31 00:37:24;;;;;;;1.23;0.70;;;;;;;;;;4981172;28;20097;-70
2022/10/31 00:39:50;;;;;;;1.10;0.70;;;;;;;;;;4981142;28;20419;-66
2022/10/31 00:42:15;;;;;;;0.50;0.50;;;;;;;;;;4997605;28;20121;-68
2022/10/31 00:44:43;;;;;;;2.93;0.70;;;;;;;;;;4997097;28;20033;-69
2022/10/31 00:47:09;;;;;;;1.33;0.70;;;;;;;;;;4996746;28;20510;-70
2022/10/31 00:49:34;;;;;;;0.70;0.70;;;;;;;;;;4997075;28;20069;-69
2022/10/31 00:52:00;;;;;;;1.33;0.80;;;;;;;;;;4996959;28;20068;-69
2022/10/31 00:54:26;;;;;;;1.37;0.80;;;;;;;;;;4997077;28;20121;-70
2022/10/31 00:56:52;;;;;;;1.93;0.90;;;;;;;;;;4980753;28;20511;-68
2022/10/31 00:59:17;;;;;;;2.67;1.00;;;;;;;;;;4996967;28;20069;-70
2022/10/31 01:01:43;;;;;;;3.30;0.73;;;;;;;;;;4980742;28;20468;-70
2022/10/31 01:04:08;;;;;;;2.00;0.70;;;;;;;;;;4996695;28;20103;-70
2022/10/31 01:06:34;;;;;;;1.53;0.70;;;;;;;;;;5012649;28;20230;-69
2022/10/31 01:08:59;;;;;;;0.73;0.60;;;;;;;;;;4996766;28;20426;-69
2022/10/31 01:11:25;;;;;;;1.37;0.70;;;;;;;;;;4980438;28;20042;-69
2022/10/31 01:13:51;;;;;;;1.03;0.83;;;;;;;;;;4996867;28;20068;-69
2022/10/31 01:16:18;;;;;;;3.40;0.80;;;;;;;;;;5012853;28;20053;-69
2022/10/31 01:18:44;;;;;;;2.47;0.90;;;;;;;;;;5013626;28;20441;-68
2022/10/31 01:21:11;;;;;;;0.83;0.83;;;;;;;;;;4996268;28;20038;-69
2022/10/31 01:23:37;;;;;;;0.70;0.63;;;;;;;;;;5013525;28;20384;-69
2022/10/31 01:26:12;;;;;;;0.70;0.70;;;;;;;;;;5013533;28;20137;-69
2022/10/31 01:28:43;;;;;;;1.33;0.90;;;;;;;;;;4996236;28;20400;-69
2022/10/31 01:31:09;;;;;;;0.70;0.70;;;;;;;;;;4996292;28;20034;-69
2022/10/31 01:33:35;;;;;;;1.00;0.80;;;;;;;;;;4989936;28;20125;-69
2022/10/31 01:36:01;;;;;;;1.13;0.70;;;;;;;;;;4976737;28;20085;-68
2022/10/31 01:38:26;;;;;;;1.13;0.60;;;;;;;;;;4993897;28;20038;-69
2022/10/31 01:40:52;;;;;;;0.77;0.73;;;;;;;;;;4993123;28;20038;-68
2022/10/31 01:43:18;;;;;;;0.67;0.67;;;;;;;;;;4993618;28;20073;-68
2022/10/31 01:45:46;;;;;;;1.40;0.87;;;;;;;;;;4960393;28;20141;-68
2022/10/31 01:48:16;;;;;;;0.80;0.80;;;;;;;;;;4976477;28;20105;-69
2022/10/31 01:50:44;;;;;;;1.70;0.80;;;;;;;;;;4960212;28;20481;-68
2022/10/31 01:53:10;;;;;;;1.00;0.70;;;;;;;;;;4991904;28;20081;-65
2022/10/31 01:55:39;;;;;;;0.70;0.70;;;;;;;;;;4992381;28;20129;-68
2022/10/31 01:58:08;;;;;;;0.70;0.70;;;;;;;;;;4992531;28;20080;-69
2022/10/31 02:00:34;;;;;;;1.70;0.70;;;;;;;;;;4976169;28;20061;-68
2022/10/31 02:02:59;;;;;;;1.13;0.70;;;;;;;;;;4976079;28;20034;-67
2022/10/31 02:05:27;;;;;;;1.23;0.80;;;;;;;;;;4976049;28;20573;-66
2022/10/31 02:08:08;;;;;;;0.80;0.80;;;;;;;;;;4992612;28;20054;-68
2022/10/31 02:10:35;;;;;;;0.70;0.70;;;;;;;;;;4975938;28;20038;-67
2022/10/31 02:13:03;;;;;;;0.97;0.90;;;;;;;;;;4992148;28;20412;-67
2022/10/31 02:15:29;;;;;;;1.53;1.00;;;;;;;;;;4992214;28;20034;-68
2022/10/31 02:17:55;;;;;;;1.10;0.80;;;;;;;;;;4992284;28;20084;-68
2022/10/31 02:20:23;;;;;;;2.93;0.90;;;;;;;;;;4992146;28;20061;-67
2022/10/31 02:23:01;;;;;;;0.83;0.80;;;;;;;;;;4975753;28;20038;-68
2022/10/31 02:25:45;;;;;;;4.60;1.07;;;;;;;;;;4959814;28;20066;-66
2022/10/31 02:28:11;;;;;;;1.20;1.10;;;;;;;;;;4943297;28;20057;-71
2022/10/31 02:30:54;;;;;;;2.13;1.33;;;;;;;;;;4959741;28;20088;-70
2022/10/31 02:33:29;;;;;;;4.17;1.33;;;;;;;;;;4979454;28;20061;-70
2022/10/31 02:36:15;;;;;;;6.33;1.27;;;;;;;;;;5011884;28;20038;-70
2022/10/31 02:38:51;;;;;;;1.00;0.90;;;;;;;;;;4997806;28;20074;-71
2022/10/31 02:41:40;;;;;;;2.53;0.90;;;;;;;;;;5011370;28;20065;-70
2022/10/31 02:44:09;;;;;;;1.27;0.90;;;;;;;;;;4995025;28;20050;-70
2022/10/31 02:46:45;;;;;;;2.53;1.03;;;;;;;;;;4995324;28;20081;-69
2022/10/31 02:49:18;;;;;;;3.90;1.10;;;;;;;;;;4994837;28;20132;-69
2022/10/31 02:51:44;;;;;;;4.07;1.20;;;;;;;;;;4978906;28;20086;-70
2022/10/31 02:54:22;;;;;;;1.27;1.17;;;;;;;;;;4995001;28;20100;-71
2022/10/31 02:56:53;;;;;;;0.73;0.73;;;;;;;;;;5011383;28;20045;-70
2022/10/31 02:59:20;;;;;;;2.77;0.90;;;;;;;;;;4994778;28;20057;-69
2022/10/31 03:01:52;;;;;;;2.63;0.87;;;;;;;;;;4994531;28;20124;-71
2022/10/31 03:04:21;;;;;;;2.03;0.80;;;;;;;;;;4994605;28;20974;-68
2022/10/31 03:06:52;;;;;;;0.70;0.70;;;;;;;;;;4978604;28;20046;-69
2022/10/31 03:09:39;;;;;;;1.00;0.90;;;;;;;;;;4995164;28;20061;-70
2022/10/31 03:12:08;;;;;;;1.50;1.03;;;;;;;;;;4994615;28;20045;-70
2022/10/31 03:14:49;;;;;;;1.83;0.97;;;;;;;;;;4994715;28;20030;-69
2022/10/31 03:17:22;;;;;;;1.35;1.25;;;;;;;;;;4994576;28;20034;-68
2022/10/31 03:19:49;;;;;;;4.87;1.10;;;;;;;;;;4994587;28;20435;-69
2022/10/31 03:22:21;;;;;;;1.00;1.00;;;;;;;;;;4994624;28;20037;-69
2022/10/31 03:24:48;;;;;;;1.17;1.07;;;;;;;;;;4994442;28;20073;-69
2022/10/31 03:27:16;;;;;;;3.13;0.90;;;;;;;;;;4994490;28;20053;-69
2022/10/31 03:29:43;;;;;;;1.73;0.90;;;;;;;;;;5011124;28;20049;-68
2022/10/31 03:32:15;;;;;;;2.67;1.40;;;;;;;;;;4978417;28;20026;-68
2022/10/31 03:34:44;;;;;;;1.48;0.98;;;;;;;;;;4978211;28;20116;-69
2022/10/31 03:37:10;;;;;;;1.67;1.00;;;;;;;;;;4994607;28;20034;-69
2022/10/31 03:39:38;;;;;;;3.70;1.00;;;;;;;;;;4994380;28;20076;-68
2022/10/31 03:42:23;;;;;;;1.63;1.03;;;;;;;;;;5013703;28;20037;-70
2022/10/31 03:45:07;;;;;;;2.43;1.03;;;;;;;;;;4982179;28;20585;-68
2022/10/31 03:47:33;;;;;;;2.93;1.10;;;;;;;;;;4981887;28;20384;-69
2022/10/31 03:49:59;;;;;;;1.53;1.10;;;;;;;;;;5014805;28;20099;-69
2022/10/31 03:52:43;;;;;;;3.23;1.63;;;;;;;;;;4998145;28;20034;-69
2022/10/31 03:55:12;;;;;;;1.70;1.00;;;;;;;;;;4965758;28;20491;-69
2022/10/31 03:57:38;;;;;;;2.70;1.40;;;;;;;;;;4981654;28;20033;-68
2022/10/31 04:00:07;;;;;;;3.40;1.00;;;;;;;;;;4981515;28;20037;-70
2022/10/31 04:02:46;;;;;;;3.83;1.00;;;;;;;;;;4997690;28;20089;-69
2022/10/31 04:05:12;;;;;;;3.33;1.23;;;;;;;;;;5014316;28;20037;-70
2022/10/31 04:07:41;;;;;;;5.70;1.30;;;;;;;;;;4981280;28;20052;-69
2022/10/31 04:10:09;;;;;;;2.00;1.10;;;;;;;;;;5014234;28;20030;-70
2022/10/31 04:12:35;;;;;;;2.13;1.30;;;;;;;;;;4997477;28;20077;-70
2022/10/31 04:15:20;;;;;;;2.93;1.17;;;;;;;;;;4994959;28;20042;-69
2022/10/31 04:17:47;;;;;;;1.63;1.17;;;;;;;;;;4981339;28;20030;-68
2022/10/31 04:20:15;;;;;;;0.87;0.87;;;;;;;;;;4997599;28;20040;-69
2022/10/31 04:22:41;;;;;;;4.63;1.10;;;;;;;;;;5013801;28;20054;-68
2022/10/31 04:25:07;;;;;;;1.90;1.00;;;;;;;;;;4997621;28;20049;-68
2022/10/31 04:27:32;;;;;;;3.43;1.20;;;;;;;;;;4997564;28;20057;-66
2022/10/31 04:29:59;;;;;;;1.87;1.33;;;;;;;;;;5013898;28;20042;-68
2022/10/31 04:32:25;;;;;;;0.90;0.90;;;;;;;;;;4997675;28;20041;-70
2022/10/31 04:34:52;;;;;;;1.83;1.30;;;;;;;;;;4997345;28;20488;-70
2022/10/31 04:37:17;;;;;;;1.73;1.20;;;;;;;;;;4998420;28;20141;-70
2022/10/31 04:39:43;;;;;;;4.03;1.20;;;;;;;;;;4980973;28;20437;-70
2022/10/31 04:42:40;;;;;;;4.00;1.27;;;;;;;;;;4969905;28;20038;-68
2022/10/31 04:45:06;;;;;;;1.53;1.27;;;;;;;;;;4996979;28;20034;-69
2022/10/31 04:47:33;;;;;;;4.07;1.67;;;;;;;;;;5013582;28;20041;-68
2022/10/31 04:50:00;;;;;;;4.83;1.80;;;;;;;;;;4997339;28;20041;-68
2022/10/31 04:52:26;;;;;;;2.50;1.63;;;;;;;;;;4980291;28;20096;-69
2022/10/31 04:54:52;;;;;;;3.40;1.80;;;;;;;;;;5013166;28;20046;-69
2022/10/31 04:57:43;;;;;;;5.07;2.00;;;;;;;;;;5013408;28;20041;-68
2022/10/31 05:00:10;;;;;;;4.67;1.50;;;;;;;;;;4996743;28;20132;-69
2022/10/31 05:02:42;;;;;;;3.37;1.43;;;;;;;;;;4980568;28;20033;-67
2022/10/31 05:05:08;;;;;;;1.40;1.20;;;;;;;;;;4980513;28;20038;-69
2022/10/31 05:07:37;;;;;;;3.67;1.60;;;;;;;;;;5013991;28;20046;-67
2022/10/31 05:10:03;;;;;;;4.93;1.47;;;;;;;;;;4980593;28;20454;-70
2022/10/31 05:12:29;;;;;;;3.47;1.27;;;;;;;;;;4980189;28;20034;-69
2022/10/31 05:15:07;;;;;;;2.40;1.10;;;;;;;;;;4996593;28;20041;-68
2022/10/31 05:17:51;;;;;;;1.20;1.10;;;;;;;;;;5013049;28;20076;-69
2022/10/31 05:20:43;;;;;;;3.40;1.20;;;;;;;;;;4981134;28;20111;-70
2022/10/31 05:23:22;;;;;;;2.80;1.33;;;;;;;;;;4994534;28;20034;-69
2022/10/31 05:25:48;;;;;;;4.80;1.40;;;;;;;;;;4996199;28;20048;-70
2022/10/31 05:28:13;;;;;;;5.43;1.20;;;;;;;;;;4996242;28;20041;-69
2022/10/31 05:30:39;;;;;;;4.10;1.23;;;;;;;;;;4964109;28;20396;-68
2022/10/31 05:33:09;;;;;;;3.57;1.37;;;;;;;;;;4980054;28;20137;-69
2022/10/31 05:35:37;;;;;;;3.03;1.60;;;;;;;;;;4995914;28;20554;-68
2022/10/31 05:38:26;;;;;;;3.83;1.70;;;;;;;;;;4992974;28;20037;-70
2022/10/31 05:40:57;;;;;;;2.87;1.70;;;;;;;;;;4996109;28;20473;-69
2022/10/31 05:43:23;;;;;;;4.30;1.80;;;;;;;;;;4963560;28;20508;-69
2022/10/31 05:45:52;;;;;;;6.83;1.83;;;;;;;;;;4979717;28;20073;-69
2022/10/31 05:48:37;;;;;;;1.40;1.30;;;;;;;;;;4995615;28;20046;-67
2022/10/31 05:51:26;;;;;;;1.43;1.20;;;;;;;;;;4977256;28;20034;-69
2022/10/31 05:53:51;;;;;;;7.20;2.20;;;;;;;;;;5012498;28;20498;-69
2022/10/31 05:56:17;;;;;;;4.30;1.50;;;;;;;;;;4995856;28;20538;-68
2022/10/31 05:58:43;;;;;;;2.87;1.37;;;;;;;;;;4979712;28;20132;-68
2022/10/31 06:01:09;;;;;;;3.57;1.23;;;;;;;;;;4970132;28;20052;-68
2022/10/31 06:03:35;;;;;;;2.03;1.10;;;;;;;;;;5029697;28;20938;-69
2022/10/31 06:06:03;;;;;;;3.17;1.00;;;;;;;;;;4988086;28;20145;-68
2022/10/31 06:08:33;;;;;;;1.90;0.95;;;;;;;;;;4986233;28;20068;-69
2022/10/31 06:11:03;;;;;;;2.77;1.20;;;;;;;;;;4970803;28;20053;-69
2022/10/31 06:13:49;;;;;;;2.20;0.83;;;;;;;;;;4991151;28;20037;-68
2022/10/31 06:16:19;;;;;;;3.40;1.02;;;;;;;;;;4988753;28;20040;-68
2022/10/31 06:18:46;;;;;;;3.37;1.10;;;;;;;;;;4970142;28;20199;-68
2022/10/31 06:21:11;;;;;;;1.33;1.13;;;;;;;;;;4994859;28;20499;-68
2022/10/31 06:23:38;;;;;;;0.80;0.80;;;;;;;;;;4987888;28;20549;-67
2022/10/31 06:26:32;;;;;;;3.03;1.00;;;;;;;;;;4991844;28;20068;-68
2022/10/31 06:28:58;;;;;;;1.60;1.00;;;;;;;;;;4985388;28;20061;-69
2022/10/31 06:31:38;;;;;;;1.43;1.10;;;;;;;;;;4985639;28;20367;-67
2022/10/31 06:34:04;;;;;;;1.17;1.00;;;;;;;;;;4967298;28;20064;-68
2022/10/31 06:36:29;;;;;;;2.17;1.17;;;;;;;;;;4990942;28;20046;-68
2022/10/31 06:38:55;;;;;;;2.70;1.20;;;;;;;;;;4959077;28;20077;-71
2022/10/31 06:41:25;;;;;;;2.85;1.30;;;;;;;;;;4959599;28;20133;-68
2022/10/31 06:43:52;;;;;;;1.50;1.40;;;;;;;;;;4942995;28;20042;-69
2022/10/31 06:46:46;;;;;;;1.83;1.03;;;;;;;;;;4932951;28;20058;-67
2022/10/31 06:49:32;;;;;;;6.60;1.30;;;;;;;;;;4922296;28;20065;-68
2022/10/31 06:52:02;;;;;;;2.17;1.52;;;;;;;;;;4960050;28;20040;-67
2022/10/31 06:54:28;;;;;;;1.47;1.30;;;;;;;;;;4974371;28;20894;-68
2022/10/31 06:56:54;;;;;;;4.50;2.03;;;;;;;;;;4971674;28;20140;-69
2022/10/31 06:59:20;;;;;;;2.10;1.30;;;;;;;;;;5013349;28;20060;-67
2022/10/31 07:02:04;;;;;;;4.50;1.30;;;;;;;;;;4999794;28;20052;-67
2022/10/31 07:04:31;;;;;;;1.60;1.10;;;;;;;;;;4979643;28;20038;-66
2022/10/31 07:06:57;;;;;;;2.73;1.23;;;;;;;;;;4995813;28;20055;-66
2022/10/31 07:09:24;;;;;;;1.80;1.30;;;;;;;;;;4996663;28;20049;-67
2022/10/31 07:11:51;;;;;;;1.33;1.20;;;;;;;;;;4995909;28;20696;-67
2022/10/31 07:14:17;;;;;;;1.33;1.20;;;;;;;;;;4996024;28;20057;-66
2022/10/31 07:16:42;;;;;;;1.40;1.30;;;;;;;;;;5000919;28;20123;-66
2022/10/31 07:19:11;;;;;;;2.50;1.40;;;;;;;;;;5017802;28;20037;-66
2022/10/31 07:21:36;;;;;;;3.38;1.20;;;;;;;;;;5017628;28;20604;-66
2022/10/31 07:24:03;;;;;;;1.38;1.27;;;;;;;;;;5017558;28;20357;-66
2022/10/31 07:26:42;;;;;;;1.55;1.20;;;;;;;;;;5002288;28;20136;-67
2022/10/31 07:29:08;;;;;;;2.22;1.38;;;;;;;;;;5017655;28;20037;-67
2022/10/31 07:31:34;;;;;;;2.25;1.23;;;;;;;;;;5016911;28;20059;-66
2022/10/31 07:34:11;;;;;;;1.85;1.10;;;;;;;;;;5011831;28;20064;-67
2022/10/31 07:36:55;;;;;;;4.53;1.48;;;;;;;;;;5017115;28;20037;-66
2022/10/31 07:39:21;;;;;;;2.40;1.40;;;;;;;;;;5017267;28;20372;-67
2022/10/31 07:41:47;;;;;;;1.40;1.20;;;;;;;;;;5017087;28;20039;-66
2022/10/31 07:44:16;;;;;;;4.38;1.30;;;;;;;;;;5016769;28;20041;-66
2022/10/31 07:47:00;;;;;;;1.98;1.20;;;;;;;;;;5002904;28;20041;-66
2022/10/31 07:50:01;;;;;;;1.30;1.20;;;;;;;;;;4946103;28;20485;-66
2022/10/31 07:52:46;;;;;;;1.75;1.25;;;;;;;;;;4997778;28;20033;-66
2022/10/31 07:55:30;;;;;;;1.20;1.10;;;;;;;;;;5002797;28;20593;-66
2022/10/31 07:57:57;;;;;;;3.92;1.30;;;;;;;;;;5017038;28;20079;-66
2022/10/31 08:00:23;;;;;;;3.58;1.48;;;;;;;;;;5033260;28;20061;-66
2022/10/31 08:02:56;;;;;;;3.08;1.58;;;;;;;;;;5000207;28;20037;-66
2022/10/31 08:05:41;;;;;;;3.42;1.23;;;;;;;;;;5002325;28;20029;-66
2022/10/31 08:08:35;;;;;;;2.13;1.70;;;;;;;;;;5028154;28;20072;-67
2022/10/31 08:11:01;;;;;;;1.60;1.20;;;;;;;;;;5016683;28;20037;-67
2022/10/31 08:13:26;;;;;;;3.38;1.42;;;;;;;;;;5015797;28;20538;-67
2022/10/31 08:15:53;;;;;;;1.30;1.15;;;;;;;;;;5032833;28;20590;-67
2022/10/31 08:18:23;;;;;;;4.82;1.00;;;;;;;;;;5016590;28;20033;-67
2022/10/31 08:20:49;;;;;;;2.35;1.20;;;;;;;;;;5016227;28;20123;-67
2022/10/31 08:23:15;;;;;;;1.55;1.08;;;;;;;;;;5016347;28;20463;-67
2022/10/31 08:25:42;;;;;;;1.15;0.88;;;;;;;;;;5016355;28;20037;-67
2022/10/31 08:28:09;;;;;;;3.67;1.00;;;;;;;;;;4999153;28;20057;-68
2022/10/31 08:30:38;;;;;;;4.07;0.70;;;;;;;;;;5016613;28;20045;-68
2022/10/31 08:33:33;;;;;;;1.05;0.60;;;;;;;;;;4995069;28;20054;-68
2022/10/31 08:36:37;;;;;;;3.67;0.70;;;;;;;;;;5024543;28;20923;-68
2022/10/31 08:39:13;;;;;;;4.53;0.85;;;;;;;;;;5035631;28;20124;-67
2022/10/31 08:41:39;;;;;;;1.95;0.80;;;;;;;;;;5002856;28;20186;-68
2022/10/31 08:44:09;;;;;;;2.00;1.00;;;;;;;;;;5036082;28;20056;-68
2022/10/31 08:46:35;;;;;;;1.25;0.80;;;;;;;;;;5035848;28;20051;-67
2022/10/31 08:49:01;;;;;;;5.53;1.10;;;;;;;;;;5035932;28;20041;-68
2022/10/31 08:51:27;;;;;;;1.90;1.02;;;;;;;;;;5019296;28;20037;-67
2022/10/31 08:53:57;;;;;;;1.42;1.20;;;;;;;;;;5002885;28;20532;-67
2022/10/31 08:56:34;;;;;;;1.80;1.30;;;;;;;;;;5036161;28;20051;-67
2022/10/31 08:59:03;;;;;;;2.20;1.23;;;;;;;;;;5035095;28;20037;-67
2022/10/31 09:01:49;;;;;;;2.08;1.13;;;;;;;;;;4995280;28;20049;-67
2022/10/31 09:04:16;;;;;;;2.58;1.45;;;;;;;;;;5002316;28;20032;-67
2022/10/31 09:06:43;;;;;;;9.20;1.50;;;;;;;;;;5035344;28;20049;-67
2022/10/31 09:09:08;;;;;;;2.65;1.20;;;;;;;;;;5002809;28;20136;-68
2022/10/31 09:11:34;;;;;;;4.40;1.23;;;;;;;;;;5001560;28;20044;-68
2022/10/31 09:14:18;;;;;;;2.45;1.35;;;;;;;;;;5021274;28;20064;-68
2022/10/31 09:17:10;;;;;;;2.58;1.10;;;;;;;;;;5034489;28;20133;-67
2022/10/31 09:20:08;;;;;;;3.65;1.40;;;;;;;;;;4997809;28;20044;-67
2022/10/31 09:22:35;;;;;;;2.15;1.30;;;;;;;;;;5018684;28;20047;-67
2022/10/31 09:25:01;;;;;;;3.25;1.40;;;;;;;;;;5018690;28;20386;-68
2022/10/31 09:27:28;;;;;;;1.20;1.10;;;;;;;;;;5002338;28;20045;-67
2022/10/31 09:29:55;;;;;;;2.60;1.30;;;;;;;;;;5018143;28;20045;-68
2022/10/31 09:32:22;;;;;;;5.10;1.15;;;;;;;;;;5001520;28;20054;-67
2022/10/31 09:34:48;;;;;;;1.23;0.88;;;;;;;;;;4982706;28;20062;-66
2022/10/31 09:37:18;;;;;;;1.67;1.00;;;;;;;;;;4995914;28;20042;-67
2022/10/31 09:39:44;;;;;;;1.95;1.48;;;;;;;;;;4962217;28;20368;-67
2022/10/31 09:42:32;;;;;;;3.92;1.23;;;;;;;;;;4963881;28;20129;-66
2022/10/31 09:45:19;;;;;;;2.63;1.45;;;;;;;;;;4963257;28;20045;-66
2022/10/31 09:48:04;;;;;;;1.80;1.35;;;;;;;;;;4962968;28;20045;-66
2022/10/31 09:50:47;;;;;;;2.15;1.40;;;;;;;;;;4978845;28;20042;-66
2022/10/31 09:53:51;;;;;;;4.40;1.40;;;;;;;;;;4987059;28;20049;-67
2022/10/31 09:56:21;;;;;;;1.33;1.15;;;;;;;;;;4995933;28;20129;-66
2022/10/31 09:59:00;;;;;;;1.75;1.15;;;;;;;;;;4980119;28;20038;-67
2022/10/31 10:01:29;;;;;;;2.90;1.15;;;;;;;;;;4978770;28;20171;-67
2022/10/31 10:04:02;;;;;;;1.20;1.03;;;;;;;;;;4978553;28;20038;-68
2022/10/31 10:06:54;;;;;;;3.35;1.15;;;;;;;;;;4978430;28;20046;-68
2022/10/31 10:09:38;;;;;;;1.60;1.20;;;;;;;;;;4981115;28;20103;-67
2022/10/31 10:13:01;;;;;;;1.77;1.20;;;;;;;;;;4980989;28;20411;-67
2022/10/31 10:15:34;;;;;;;1.50;1.10;;;;;;;;;;4978171;28;20168;-67
2022/10/31 10:18:00;;;;;;;1.40;0.90;;;;;;;;;;4962304;28;20044;-68
2022/10/31 10:20:38;;;;;;;4.03;1.10;;;;;;;;;;4978504;28;20029;-67
2022/10/31 10:23:22;;;;;;;2.00;1.10;;;;;;;;;;4994784;28;20065;-75
2022/10/31 10:25:51;;;;;;;1.45;1.00;;;;;;;;;;4962430;28;20041;-67
2022/10/31 10:28:22;;;;;;;1.23;1.00;;;;;;;;;;4994210;28;20076;-66
2022/10/31 10:30:50;;;;;;;3.35;1.20;;;;;;;;;;4962394;28;20029;-67
2022/10/31 10:33:33;;;;;;;1.20;0.98;;;;;;;;;;4965524;28;20530;-66
2022/10/31 10:36:00;;;;;;;1.80;0.73;;;;;;;;;;4997655;28;20464;-66
2022/10/31 10:38:49;;;;;;;1.27;1.00;;;;;;;;;;5031231;28;20040;-66
2022/10/31 10:41:22;;;;;;;0.90;0.80;;;;;;;;;;4997839;28;20494;-66
2022/10/31 10:43:52;;;;;;;1.33;1.00;;;;;;;;;;4981944;28;20569;-67
2022/10/31 10:49:11;;;;;;;0.60;0.60;;;;;;;;;;5013544;28;20087;-67
2022/10/31 10:51:40;;;;;;;0.77;0.70;;;;;;;;;;4981311;28;20042;-68
2022/10/31 10:54:15;;;;;;;1.58;0.98;;;;;;;;;;4997535;28;20502;-68
2022/10/31 10:56:59;;;;;;;0.98;0.80;;;;;;;;;;5037167;28;20041;-67
2022/10/31 10:59:26;;;;;;;1.02;0.60;;;;;;;;;;5000265;28;20123;-68
2022/10/31 11:01:52;;;;;;;2.78;0.80;;;;;;;;;;5050759;28;20056;-66
2022/10/31 11:04:23;;;;;;;0.93;0.60;;;;;;;;;;5033296;28;20037;-66
2022/10/31 11:06:59;;;;;;;0.80;0.70;;;;;;;;;;5000159;28;20040;-67
2022/10/31 11:09:25;;;;;;;0.73;0.73;;;;;;;;;;5000482;28;20147;-68
2022/10/31 11:11:51;;;;;;;0.88;0.60;;;;;;;;;;4999738;28;20506;-68
2022/10/31 11:14:17;;;;;;;1.00;0.70;;;;;;;;;;5016550;28;20056;-67
2022/10/31 11:16:44;;;;;;;1.65;0.60;;;;;;;;;;5032857;28;20052;-66
2022/10/31 11:19:16;;;;;;;1.00;0.60;;;;;;;;;;5000517;28;20064;-66
2022/10/31 11:21:41;;;;;;;0.60;0.60;;;;;;;;;;5000666;28;20448;-66
2022/10/31 11:24:07;;;;;;;0.95;0.65;;;;;;;;;;5016964;28;20132;-67
2022/10/31 11:26:35;;;;;;;0.80;0.70;;;;;;;;;;5032780;28;20053;-68
2022/10/31 11:29:02;;;;;;;1.13;0.70;;;;;;;;;;5016554;28;20053;-69
2022/10/31 11:31:28;;;;;;;0.65;0.65;;;;;;;;;;5049987;28;20040;-68
2022/10/31 11:34:05;;;;;;;0.98;0.70;;;;;;;;;;5048174;28;20110;-68
2022/10/31 11:36:35;;;;;;;0.80;0.80;;;;;;;;;;4997624;28;20479;-68
2022/10/31 11:39:02;;;;;;;1.38;1.23;;;;;;;;;;5027529;28;20083;-69
2022/10/31 11:41:28;;;;;;;1.52;0.93;;;;;;;;;;4999200;28;20066;-68
2022/10/31 11:43:55;;;;;;;1.70;0.82;;;;;;;;;;4977394;28;20573;-68
2022/10/31 11:46:22;;;;;;;1.00;0.93;;;;;;;;;;4994668;28;20087;-68
2022/10/31 11:48:49;;;;;;;2.13;1.00;;;;;;;;;;5012599;28;20037;-68
2022/10/31 11:51:42;;;;;;;1.40;1.00;;;;;;;;;;5013209;28;20033;-68
2022/10/31 11:54:18;;;;;;;1.30;1.10;;;;;;;;;;4993340;28;20053;-68
2022/10/31 11:56:43;;;;;;;1.35;0.80;;;;;;;;;;4996619;28;20030;-69
2022/10/31 11:59:17;;;;;;;1.88;0.85;;;;;;;;;;4981009;28;20490;-67
2022/10/31 12:01:47;;;;;;;2.75;0.90;;;;;;;;;;5031584;28;20041;-66
2022/10/31 12:04:13;;;;;;;2.45;0.80;;;;;;;;;;4982514;28;20030;-67
2022/10/31 12:06:39;;;;;;;1.75;1.02;;;;;;;;;;4998972;28;20045;-68
2022/10/31 12:09:11;;;;;;;1.45;1.10;;;;;;;;;;5036133;28;20044;-69
2022/10/31 12:11:50;;;;;;;8.75;1.20;;;;;;;;;;5053208;28;20052;-67
2022/10/31 12:14:29;;;;;;;1.98;0.95;;;;;;;;;;5003296;28;20124;-68
2022/10/31 12:17:08;;;;;;;1.42;0.80;;;;;;;;;;5002191;28;20395;-68
2022/10/31 12:19:52;;;;;;;0.70;0.70;;;;;;;;;;5019517;28;20025;-69
2022/10/31 12:22:30;;;;;;;3.22;0.70;;;;;;;;;;5002988;28;20433;-68
2022/10/31 12:25:05;;;;;;;3.20;0.90;;;;;;;;;;5036343;28;20033;-69
2022/10/31 12:27:31;;;;;;;2.55;0.80;;;;;;;;;;5002217;28;20099;-68
2022/10/31 12:30:08;;;;;;;1.42;0.88;;;;;;;;;;5003173;28;20436;-69
2022/10/31 12:32:56;;;;;;;1.05;0.70;;;;;;;;;;5002853;28;20040;-67
2022/10/31 12:35:22;;;;;;;0.93;0.80;;;;;;;;;;5035681;28;20127;-68
2022/10/31 12:38:04;;;;;;;2.80;0.90;;;;;;;;;;5001978;28;20487;-68
2022/10/31 12:40:48;;;;;;;1.00;0.90;;;;;;;;;;5035348;28;20064;-68
2022/10/31 12:43:34;;;;;;;0.90;0.70;;;;;;;;;;5002849;28;20033;-67
2022/10/31 12:46:01;;;;;;;2.72;0.95;;;;;;;;;;5019132;28;20029;-69
2022/10/31 12:48:33;;;;;;;3.97;1.00;;;;;;;;;;5034175;28;20127;-68
2022/10/31 12:50:58;;;;;;;3.95;1.20;;;;;;;;;;5002575;28;20037;-69
2022/10/31 12:53:33;;;;;;;3.15;1.15;;;;;;;;;;5035121;28;20058;-70
2022/10/31 12:56:11;;;;;;;1.30;1.00;;;;;;;;;;5002071;28;20032;-71
2022/10/31 12:58:40;;;;;;;1.40;1.10;;;;;;;;;;5001069;28;20140;-73
2022/10/31 13:01:26;;;;;;;3.22;1.10;;;;;;;;;;4990214;28;20044;-72
2022/10/31 13:04:11;;;;;;;2.20;1.30;;;;;;;;;;4979621;28;20431;-71
2022/10/31 13:06:39;;;;;;;3.35;1.30;;;;;;;;;;4962703;28;20080;-71
2022/10/31 13:09:08;;;;;;;1.85;1.10;;;;;;;;;;4978956;28;20036;-71
2022/10/31 13:11:36;;;;;;;1.70;1.30;;;;;;;;;;4978847;28;20088;-69
2022/10/31 13:14:07;;;;;;;3.47;1.23;;;;;;;;;;4978899;28;20072;-73
2022/10/31 13:16:36;;;;;;;3.88;1.35;;;;;;;;;;4979894;28;20033;-70
2022/10/31 13:19:22;;;;;;;4.10;1.23;;;;;;;;;;4978521;28;20092;-73
2022/10/31 13:21:51;;;;;;;1.67;1.00;;;;;;;;;;4995427;28;20042;-72
2022/10/31 13:24:20;;;;;;;2.33;2.13;;;;;;;;;;4979232;28;20080;-72
2022/10/31 13:26:51;;;;;;;3.22;1.45;;;;;;;;;;4978425;28;20037;-73
2022/10/31 13:29:28;;;;;;;1.92;1.35;;;;;;;;;;4978458;28;20045;-75
2022/10/31 13:31:54;;;;;;;2.65;1.30;;;;;;;;;;4962855;28;20038;-73
2022/10/31 13:34:52;;;;;;;1.65;1.20;;;;;;;;;;4979765;28;20419;-72
2022/10/31 13:37:24;;;;;;;1.85;1.20;;;;;;;;;;4962786;28;20046;-74
2022/10/31 13:39:53;;;;;;;3.40;1.70;;;;;;;;;;4979522;28;20140;-73
2022/10/31 13:42:31;;;;;;;4.63;1.33;;;;;;;;;;4962910;28;20124;-73
2022/10/31 13:45:07;;;;;;;1.00;1.00;;;;;;;;;;4978923;28;20045;-73
2022/10/31 13:47:33;;;;;;;1.60;1.20;;;;;;;;;;4978619;28;20054;-74
2022/10/31 13:50:14;;;;;;;4.20;2.00;;;;;;;;;;4978067;28;20042;-73
2022/10/31 13:52:40;;;;;;;1.95;1.08;;;;;;;;;;4962662;28;20061;-73
2022/10/31 13:55:27;;;;;;;5.10;1.15;;;;;;;;;;4995281;28;20055;-75
2022/10/31 13:57:52;;;;;;;1.35;1.20;;;;;;;;;;4977902;28;20449;-75
2022/10/31 14:00:23;;;;;;;1.83;1.20;;;;;;;;;;4979864;28;20064;-71
2022/10/31 14:02:50;;;;;;;1.35;1.20;;;;;;;;;;4969452;28;20040;-70
2022/10/31 14:05:25;;;;;;;1.67;1.20;;;;;;;;;;4967938;28;20053;-72
2022/10/31 14:07:52;;;;;;;3.45;0.90;;;;;;;;;;4976033;28;20034;-70
2022/10/31 14:10:38;;;;;;;1.45;1.10;;;;;;;;;;4978086;28;20091;-70
2022/10/31 14:13:06;;;;;;;1.50;1.10;;;;;;;;;;4977575;28;20044;-70
2022/10/31 14:15:32;;;;;;;3.38;1.30;;;;;;;;;;4961560;28;20056;-70
2022/10/31 14:18:01;;;;;;;5.10;1.38;;;;;;;;;;4961474;28;20038;-72
2022/10/31 14:20:38;;;;;;;7.47;1.00;;;;;;;;;;4977599;28;20030;-71
2022/10/31 14:23:22;;;;;;;1.48;1.25;;;;;;;;;;4961884;28;20041;-72
2022/10/31 14:25:48;;;;;;;1.15;0.98;;;;;;;;;;4961229;28;20176;-70
2022/10/31 14:28:42;;;;;;;1.70;1.20;;;;;;;;;;4961279;28;20173;-70
2022/10/31 14:31:27;;;;;;;2.40;1.17;;;;;;;;;;4936023;28;20053;-71
2022/10/31 14:33:53;;;;;;;1.30;1.17;;;;;;;;;;4961742;28;20085;-71
2022/10/31 14:36:25;;;;;;;1.42;1.10;;;;;;;;;;4961775;28;20041;-70
2022/10/31 14:39:01;;;;;;;1.65;1.25;;;;;;;;;;4993475;28;20130;-73
2022/10/31 14:41:46;;;;;;;2.28;1.27;;;;;;;;;;4977156;28;20472;-70
2022/10/31 14:44:32;;;;;;;1.27;1.13;;;;;;;;;;4961008;28;20835;-71
2022/10/31 14:47:21;;;;;;;2.45;1.20;;;;;;;;;;4961371;28;20038;-71
2022/10/31 14:49:53;;;;;;;2.25;1.10;;;;;;;;;;4977882;28;20042;-70
2022/10/31 14:52:19;;;;;;;2.85;1.10;;;;;;;;;;4976868;28;20620;-70
2022/10/31 14:54:51;;;;;;;1.95;1.00;;;;;;;;;;4961299;28;20045;-69
2022/10/31 14:57:21;;;;;;;1.15;1.05;;;;;;;;;;4980579;28;20033;-70
2022/10/31 14:59:49;;;;;;;1.52;1.13;;;;;;;;;;5000151;28;20040;-70
2022/10/31 15:02:19;;;;;;;2.22;1.15;;;;;;;;;;4999612;28;20033;-70
2022/10/31 15:04:46;;;;;;;1.75;1.10;;;;;;;;;;5016765;28;20037;-69
2022/10/31 15:07:20;;;;;;;3.90;1.50;;;;;;;;;;5016353;28;20107;-70
2022/10/31 15:09:54;;;;;;;1.95;1.40;;;;;;;;;;5016421;28;20032;-69
2022/10/31 15:12:28;;;;;;;3.53;1.40;;;;;;;;;;5015259;28;20025;-69
2022/10/31 15:14:53;;;;;;;2.78;1.40;;;;;;;;;;5000097;28;20036;-71